Language: 


Des rapports , des résumés tant et plus, au choix de chacun....


Données statistiques de la station
Quotidien Rapport Avril 1, 2017 Unités:  Métrique    Anglais   les deux
« Précédent Jour
Suivant Jour »
Quotidien Hebdomadaire Mensuel Annuel Actuel
  Haut: Bas: Moyen:
Température: 16.8 °C 8.1 °C 12 °C
Pt de rosée: 10.5 °C 4.2 °C 7.5 °C
Humidité: 96 % 50 % 76 %
Vitesse du vent: 16.6 km/h 0.0 km/h 4.3 km/h
Rafales: 20.6 km/h - -
Vent:- - SW
Pression: 1013.1 hPa 1009.0 hPa -
Précipitation: 0.0 mm    
Historical Graphs
 
 
Données statistiques pour Avril 1, 2017
Heure Température Point de rosée Pression Vent Vitesse du vent Refales Humidité Pluie (taux horaire)
00:00 8.7 °C 7.2 °C 1011.1 hPa Calm   4.0 km/h 90 % 0.0 mm
00:05 8.7 °C 7.3 °C 1011.1 hPa Calm   3.2 km/h 91 % 0.0 mm
00:10 8.7 °C 7.3 °C 1010.0 hPa Calm   4.0 km/h 91 % 0.0 mm
00:15 8.8 °C 7.4 °C 1010.0 hPa Calm   4.0 km/h 91 % 0.0 mm
00:20 8.9 °C 7.6 °C 1010.0 hPa Calm     91 % 0.0 mm
00:25 8.8 °C 7.3 °C 1010.0 hPa Calm     90 % 0.0 mm
00:30 8.8 °C 7.3 °C 1010.0 hPa Calm   4.0 km/h 90 % 0.0 mm
00:35 8.8 °C 7.3 °C 1010.0 hPa Calm   4.0 km/h 90 % 0.0 mm
00:40 8.8 °C 7.4 °C 1010.0 hPa ESE 2.1 km/h 3.2 km/h 91 % 0.0 mm
00:45 8.8 °C 7.6 °C 1010.0 hPa Calm   4.7 km/h 92 % 0.0 mm
00:50 8.9 °C 7.8 °C 1010.0 hPa Calm   6.4 km/h 93 % 0.0 mm
00:55 8.9 °C 7.8 °C 1012.1 hPa Calm   6.4 km/h 93 % 0.0 mm
01:00 9.1 °C 8.1 °C 1012.1 hPa Calm   6.1 km/h 93 % 0.0 mm
01:05 9.1 °C 8.1 °C 1012.1 hPa Calm   6.1 km/h 93 % 0.0 mm
01:10 9.1 °C 8.1 °C 1011.1 hPa Calm     93 % 0.0 mm
01:15 9.1 °C 8.1 °C 1011.1 hPa Calm     93 % 0.0 mm
01:20 9.0 °C 7.9 °C 1011.1 hPa Calm   3.5 km/h 93 % 0.0 mm
01:25 9.0 °C 7.9 °C 1011.1 hPa Calm   3.5 km/h 93 % 0.0 mm
01:30 8.9 °C 7.8 °C 1011.1 hPa Calm   2.1 km/h 93 % 0.0 mm
01:35 8.8 °C 7.6 °C 1011.1 hPa Calm     92 % 0.0 mm
01:40 8.7 °C 7.7 °C 1011.1 hPa Calm     93 % 0.0 mm
01:45 8.5 °C 7.4 °C 1011.1 hPa Calm     93 % 0.0 mm
01:51 8.4 °C 7.4 °C 1011.1 hPa Calm   1.4 km/h 93 % 0.0 mm
01:56 8.5 °C 7.4 °C 1011.1 hPa Calm   1.4 km/h 93 % 0.0 mm
02:01 8.6 °C 7.6 °C 1011.1 hPa Calm     93 % 0.0 mm
02:06 8.6 °C 7.7 °C 1011.1 hPa Calm     94 % 0.0 mm
02:11 8.6 °C 7.7 °C 1011.1 hPa Calm     94 % 0.0 mm
02:16 8.6 °C 7.7 °C 1011.1 hPa Calm   1.4 km/h 94 % 0.0 mm
02:21 8.6 °C 7.7 °C 1011.1 hPa Calm   4.3 km/h 94 % 0.0 mm
02:22 8.6 °C 7.7 °C 1010.0 hPa Calm   4.3 km/h 94 % 0.0 mm
02:27 8.6 °C 7.9 °C 1010.0 hPa Calm   2.1 km/h 95 % 0.0 mm
02:32 8.7 °C 7.9 °C 1010.0 hPa Calm   3.5 km/h 95 % 0.0 mm
02:37 8.6 °C 7.9 °C 1010.0 hPa Calm   3.5 km/h 95 % 0.0 mm
02:42 8.6 °C 7.9 °C 1010.0 hPa Calm     95 % 0.0 mm
02:47 8.6 °C 7.9 °C 1010.0 hPa Calm     95 % 0.0 mm
02:52 8.4 °C 7.7 °C 1010.0 hPa Calm     95 % 0.0 mm
02:57 8.3 °C 7.6 °C 1010.0 hPa Calm   2.1 km/h 95 % 0.0 mm
03:02 8.4 °C 7.7 °C 1010.0 hPa Calm   3.5 km/h 95 % 0.0 mm
03:07 8.4 °C 7.7 °C 1010.0 hPa Calm   3.5 km/h 95 % 0.0 mm
03:12 8.4 °C 7.7 °C 1010.0 hPa Calm   4.3 km/h 95 % 0.0 mm
03:17 8.4 °C 7.7 °C 1010.0 hPa Calm   4.3 km/h 95 % 0.0 mm
03:22 8.9 °C 8.2 °C 1010.0 hPa South 3.2 km/h 8.7 km/h 95 % 0.0 mm
03:27 9.1 °C 8.5 °C 1010.0 hPa South 5.5 km/h 8.7 km/h 96 % 0.0 mm
03:32 9.5 °C 8.9 °C 1010.0 hPa South 5.5 km/h 9.7 km/h 96 % 0.0 mm
03:37 9.8 °C 9.1 °C 1010.0 hPa South 6.1 km/h 9.7 km/h 95 % 0.0 mm
03:42 10.0 °C 9.2 °C 1010.0 hPa South 6.4 km/h 9.7 km/h 95 % 0.0 mm
03:48 10.2 °C 9.4 °C 1010.0 hPa WSW 2.1 km/h 10.1 km/h 95 % 0.0 mm
03:53 10.4 °C 9.6 °C 1010.0 hPa SSW 9.0 km/h 10.1 km/h 95 % 0.0 mm
03:58 10.6 °C 9.7 °C 1010.0 hPa WSW 8.7 km/h 10.5 km/h 94 % 0.0 mm
04:03 10.7 °C 9.8 °C 1010.0 hPa SW 9.3 km/h 10.5 km/h 94 % 0.0 mm
04:08 10.8 °C 9.6 °C 1010.0 hPa Calm   10.5 km/h 92 % 0.0 mm
04:13 10.9 °C 9.4 °C 1010.0 hPa Calm   8.7 km/h 91 % 0.0 mm
04:18 10.9 °C 9.4 °C 1010.0 hPa Calm   5.5 km/h 91 % 0.0 mm
04:23 10.9 °C 9.3 °C 1010.0 hPa West 1.8 km/h 6.1 km/h 90 % 0.0 mm
04:28 10.8 °C 9.1 °C 1010.0 hPa Calm   6.1 km/h 89 % 0.0 mm
04:33 10.8 °C 9.1 °C 1010.0 hPa Calm   5.5 km/h 89 % 0.0 mm
04:38 10.8 °C 8.9 °C 1009.0 hPa Calm     88 % 0.0 mm
04:43 10.7 °C 8.8 °C 1009.0 hPa Calm   1.4 km/h 88 % 0.0 mm
04:48 10.6 °C 8.7 °C 1009.0 hPa Calm   1.4 km/h 88 % 0.0 mm
04:53 10.6 °C 8.7 °C 1009.0 hPa Calm     88 % 0.0 mm
04:58 10.6 °C 8.7 °C 1009.0 hPa Calm     88 % 0.0 mm
05:03 10.6 °C 8.7 °C 1009.0 hPa Calm   4.3 km/h 88 % 0.0 mm
05:08 10.6 °C 8.7 °C 1009.0 hPa South 2.6 km/h 4.3 km/h 88 % 0.0 mm
05:13 10.6 °C 8.7 °C 1009.0 hPa Calm   2.6 km/h 88 % 0.0 mm
05:18 10.6 °C 8.7 °C 1009.0 hPa Calm   1.4 km/h 88 % 0.0 mm
05:23 10.6 °C 8.7 °C 1009.0 hPa Calm     88 % 0.0 mm
05:28 10.5 °C 8.6 °C 1009.0 hPa Calm   1.8 km/h 88 % 0.0 mm
05:33 10.5 °C 8.7 °C 1009.0 hPa South 5.8 km/h 6.1 km/h 89 % 0.0 mm
05:38 10.5 °C 8.7 °C 1010.0 hPa SSW 1.4 km/h 6.9 km/h 89 % 0.0 mm
05:43 10.5 °C 8.7 °C 1010.0 hPa South 4.7 km/h 6.9 km/h 89 % 0.0 mm
05:48 10.5 °C 8.7 °C 1010.0 hPa South 5.8 km/h 6.1 km/h 89 % 0.0 mm
05:53 10.5 °C 8.7 °C 1009.0 hPa South 5.5 km/h 6.1 km/h 89 % 0.0 mm
05:58 10.5 °C 8.7 °C 1009.0 hPa Calm   5.5 km/h 89 % 0.0 mm
06:03 10.5 °C 8.7 °C 1009.0 hPa South 4.7 km/h 5.0 km/h 89 % 0.0 mm
06:08 10.5 °C 8.9 °C 1009.0 hPa Calm   5.8 km/h 90 % 0.0 mm
06:10 10.5 °C 8.9 °C 1009.0 hPa Calm   5.8 km/h 90 % 0.0 mm
06:15 10.5 °C 8.9 °C 1009.0 hPa South 4.0 km/h 6.1 km/h 90 % 0.0 mm
06:20 10.5 °C 8.9 °C 1009.0 hPa Calm   6.1 km/h 90 % 0.0 mm
06:25 10.5 °C 8.9 °C 1009.0 hPa SSE 4.0 km/h 8.7 km/h 90 % 0.0 mm
06:30 10.5 °C 9.1 °C 1009.0 hPa South 4.7 km/h 8.7 km/h 91 % 0.0 mm
06:35 10.5 °C 9.1 °C 1009.0 hPa Calm   6.4 km/h 91 % 0.0 mm
06:40 10.4 °C 9.0 °C 1010.0 hPa SSW 6.9 km/h 6.9 km/h 91 % 0.0 mm
06:45 10.4 °C 9.2 °C 1010.0 hPa SSW 3.5 km/h 7.6 km/h 92 % 0.0 mm
06:50 10.4 °C 9.2 °C 1010.0 hPa Calm   7.6 km/h 92 % 0.0 mm
06:55 10.3 °C 9.1 °C 1010.0 hPa Calm   5.8 km/h 92 % 0.0 mm
07:00 10.3 °C 9.1 °C 1010.0 hPa Calm   5.8 km/h 92 % 0.0 mm
07:05 10.2 °C 9.1 °C 1010.0 hPa SSW 4.0 km/h 5.5 km/h 93 % 0.0 mm
07:10 10.1 °C 9.0 °C 1010.0 hPa Calm   5.5 km/h 93 % 0.0 mm
07:15 10.1 °C 9.0 °C 1010.0 hPa South 4.3 km/h 6.1 km/h 93 % 0.0 mm
07:20 10.0 °C 8.9 °C 1010.0 hPa Calm   6.1 km/h 93 % 0.0 mm
07:25 10.0 °C 8.9 °C 1010.0 hPa Calm   5.0 km/h 93 % 0.0 mm
07:30 9.9 °C 8.8 °C 1010.0 hPa Calm     93 % 0.0 mm
07:35 9.9 °C 8.8 °C 1010.0 hPa Calm     93 % 0.0 mm
07:40 9.9 °C 9.0 °C 1010.0 hPa Calm   2.1 km/h 94 % 0.0 mm
07:45 9.8 °C 8.9 °C 1010.0 hPa Calm   2.1 km/h 94 % 0.0 mm
07:50 9.8 °C 8.9 °C 1010.0 hPa Calm     94 % 0.0 mm
07:55 9.8 °C 8.9 °C 1010.0 hPa Calm   2.6 km/h 94 % 0.0 mm
08:00 9.8 °C 8.9 °C 1010.0 hPa Calm   4.3 km/h 94 % 0.0 mm
08:05 9.8 °C 8.9 °C 1010.0 hPa Calm   5.8 km/h 94 % 0.0 mm
08:06 9.8 °C 8.9 °C 1010.0 hPa Calm   5.8 km/h 94 % 0.0 mm
08:11 9.8 °C 8.9 °C 1010.0 hPa Calm   5.8 km/h 94 % 0.0 mm
08:16 9.8 °C 8.9 °C 1010.0 hPa South 4.0 km/h 5.0 km/h 94 % 0.0 mm
08:21 9.8 °C 9.1 °C 1010.0 hPa Calm   5.0 km/h 95 % 0.0 mm
08:26 9.9 °C 9.1 °C 1010.0 hPa Calm   5.0 km/h 95 % 0.0 mm
08:31 10.0 °C 9.2 °C 1010.0 hPa Calm   4.7 km/h 95 % 0.0 mm
08:36 10.1 °C 9.3 °C 1010.0 hPa Calm   4.7 km/h 95 % 0.0 mm
08:41 10.1 °C 9.3 °C 1010.0 hPa Calm     95 % 0.0 mm
08:46 10.2 °C 9.4 °C 1010.0 hPa SSW 5.0 km/h 5.0 km/h 95 % 0.0 mm
08:51 10.3 °C 9.5 °C 1010.0 hPa SSW 4.0 km/h 5.0 km/h 95 % 0.0 mm
08:56 10.5 °C 9.7 °C 1010.0 hPa Calm   4.7 km/h 95 % 0.0 mm
09:01 10.9 °C 10.1 °C 1010.0 hPa Calm   5.0 km/h 95 % 0.0 mm
09:06 10.9 °C 10.1 °C 1010.0 hPa SSW 6.9 km/h 9.7 km/h 95 % 0.0 mm
09:11 11.0 °C 10.1 °C 1010.0 hPa Calm   9.7 km/h 94 % 0.0 mm
09:16 11.1 °C 10.2 °C 1010.0 hPa SSW 5.8 km/h 9.3 km/h 94 % 0.0 mm
09:21 11.1 °C 10.2 °C 1010.0 hPa SSW 6.1 km/h 9.7 km/h 94 % 0.0 mm
09:26 11.2 °C 10.2 °C 1011.1 hPa SSW 7.6 km/h 12.2 km/h 94 % 0.0 mm
09:31 11.3 °C 10.2 °C 1011.1 hPa SW 6.4 km/h 12.2 km/h 93 % 0.0 mm
09:36 11.3 °C 10.0 °C 1011.1 hPa SW 11.9 km/h 11.9 km/h 92 % 0.0 mm
09:41 11.4 °C 10.1 °C 1011.1 hPa SW 9.3 km/h 11.9 km/h 92 % 0.0 mm
09:46 11.4 °C 10.1 °C 1011.1 hPa SW 6.9 km/h 10.8 km/h 91 % 0.0 mm
09:51 11.7 °C 10.2 °C 1011.1 hPa SSW 9.7 km/h 10.5 km/h 91 % 0.0 mm
09:56 11.8 °C 10.3 °C 1012.1 hPa SW 9.0 km/h 9.7 km/h 90 % 0.0 mm
10:01 11.9 °C 10.4 °C 1012.1 hPa SW 5.0 km/h 10.1 km/h 90 % 0.0 mm
10:06 11.9 °C 10.2 °C 1012.1 hPa SW 6.4 km/h 10.1 km/h 89 % 0.0 mm
10:11 11.9 °C 10.1 °C 1011.1 hPa WSW 6.9 km/h 10.5 km/h 88 % 0.0 mm
10:16 11.9 °C 9.8 °C 1011.1 hPa WSW 11.6 km/h 12.2 km/h 87 % 0.0 mm
10:21 12.1 °C 9.8 °C 1011.1 hPa WSW 5.8 km/h 12.6 km/h 86 % 0.0 mm
10:26 12.2 °C 9.7 °C 1011.1 hPa SSW 4.7 km/h 12.6 km/h 85 % 0.0 mm
10:31 12.2 °C 9.6 °C 1011.1 hPa WSW 9.0 km/h 11.9 km/h 84 % 0.0 mm
10:36 12.7 °C 10.2 °C 1011.1 hPa Calm   11.9 km/h 85 % 0.0 mm
10:41 12.8 °C 10.2 °C 1011.1 hPa Calm   9.0 km/h 84 % 0.0 mm
10:46 13.1 °C 10.3 °C 1011.1 hPa SSW 9.3 km/h 9.7 km/h 83 % 0.0 mm
10:51 13.2 °C 10.2 °C 1011.1 hPa SW 9.3 km/h 11.9 km/h 82 % 0.0 mm
10:56 13.5 °C 10.5 °C 1011.1 hPa WSW 9.7 km/h 11.9 km/h 82 % 0.0 mm
11:02 13.7 °C 10.3 °C 1011.1 hPa West 12.2 km/h 12.6 km/h 80 % 0.0 mm
11:07 13.7 °C 9.9 °C 1011.1 hPa SW 10.8 km/h 13.7 km/h 78 % 0.0 mm
11:12 13.7 °C 9.6 °C 1011.1 hPa SW 9.3 km/h 14.3 km/h 76 % 0.0 mm
11:17 13.9 °C 9.8 °C 1011.1 hPa WSW 6.9 km/h 14.3 km/h 76 % 0.0 mm
11:22 14.2 °C 10.2 °C 1011.1 hPa West 6.9 km/h 12.2 km/h 77 % 0.0 mm
11:27 14.5 °C 10.1 °C 1011.1 hPa WSW 8.7 km/h 12.6 km/h 75 % 0.0 mm
11:32 14.9 °C 10.3 °C 1011.1 hPa SW 6.4 km/h 15.8 km/h 74 % 0.0 mm
11:37 15.1 °C 10.3 °C 1011.1 hPa WSW 12.2 km/h 15.8 km/h 73 % 0.0 mm
11:39 15.2 °C 10.2 °C 1010.0 hPa WSW 9.0 km/h 15.8 km/h 72 % 0.0 mm
11:44 15.2 °C 9.9 °C 1010.0 hPa WSW 7.9 km/h 12.6 km/h 71 % 0.0 mm
11:49 15.6 °C 10.1 °C 1010.0 hPa WSW 6.4 km/h 12.6 km/h 70 % 0.0 mm
11:54 15.8 °C 9.9 °C 1011.1 hPa South 8.7 km/h 10.8 km/h 68 % 0.0 mm
11:59 16.1 °C 9.9 °C 1011.1 hPa Calm   13.7 km/h 67 % 0.0 mm
12:04 16.3 °C 9.4 °C 1011.1 hPa South 9.0 km/h 13.7 km/h 64 % 0.0 mm
12:09 15.9 °C 8.6 °C 1011.1 hPa SSW 11.9 km/h 12.6 km/h 62 % 0.0 mm
12:14 15.5 °C 8.2 °C 1011.1 hPa SW 2.6 km/h 12.6 km/h 62 % 0.0 mm
12:19 15.9 °C 8.6 °C 1011.1 hPa WSW 10.1 km/h 12.2 km/h 62 % 0.0 mm
12:24 16.0 °C 8.2 °C 1011.1 hPa SW 6.4 km/h 12.6 km/h 60 % 0.0 mm
12:29 16.6 °C 8.8 °C 1011.1 hPa West 12.6 km/h 12.6 km/h 60 % 0.0 mm
12:34 16.3 °C 7.7 °C 1011.1 hPa SSW 12.2 km/h 14.0 km/h 57 % 0.0 mm
12:40 16.1 °C 7.6 °C 1011.1 hPa SW 6.4 km/h 14.3 km/h 57 % 0.0 mm
12:45 16.7 °C 8.3 °C 1011.1 hPa SW 11.1 km/h 14.3 km/h 58 % 0.0 mm
12:50 16.3 °C 7.7 °C 1011.1 hPa Calm   14.0 km/h 57 % 0.0 mm
12:55 16.4 °C 7.6 °C 1011.1 hPa SSW 6.4 km/h 12.6 km/h 56 % 0.0 mm
13:00 16.0 °C 7.2 °C 1011.1 hPa SW 10.8 km/h 13.7 km/h 56 % 0.0 mm
13:05 15.8 °C 7.3 °C 1011.1 hPa WSW 9.3 km/h 14.0 km/h 57 % 0.0 mm
13:10 15.7 °C 7.4 °C 1011.1 hPa WSW 8.7 km/h 14.0 km/h 58 % 0.0 mm
13:15 15.5 °C 7.3 °C 1011.1 hPa WSW 5.0 km/h 11.9 km/h 58 % 0.0 mm
13:20 15.2 °C 7.0 °C 1011.1 hPa West 10.5 km/h 14.0 km/h 58 % 0.0 mm
13:25 15.0 °C 6.8 °C 1012.1 hPa West 14.3 km/h 16.3 km/h 58 % 0.0 mm
13:30 14.9 °C 6.4 °C 1012.1 hPa SW 10.1 km/h 16.3 km/h 57 % 0.0 mm
13:35 15.0 °C 7.1 °C 1012.1 hPa WSW 13.0 km/h 16.9 km/h 59 % 0.0 mm
13:40 16.0 °C 7.9 °C 1011.1 hPa West 16.3 km/h 16.9 km/h 59 % 0.0 mm
13:45 15.8 °C 7.3 °C 1011.1 hPa West 6.1 km/h 16.3 km/h 57 % 0.0 mm
13:50 16.0 °C 7.4 °C 1011.1 hPa WSW 7.9 km/h 16.3 km/h 57 % 0.0 mm
13:55 16.2 °C 7.4 °C 1011.1 hPa WSW 13.7 km/h 16.9 km/h 56 % 0.0 mm
14:00 16.2 °C 7.1 °C 1011.1 hPa SW 11.9 km/h 20.6 km/h 55 % 0.0 mm
14:05 16.1 °C 6.8 °C 1011.1 hPa SSW 9.3 km/h 20.6 km/h 54 % 0.0 mm
14:10 16.0 °C 6.7 °C 1011.1 hPa WSW 7.9 km/h 16.3 km/h 54 % 0.0 mm
14:15 16.0 °C 6.7 °C 1011.1 hPa WSW 16.6 km/h 16.6 km/h 54 % 0.0 mm
14:20 16.0 °C 6.7 °C 1011.1 hPa WSW 7.9 km/h 16.6 km/h 54 % 0.0 mm
14:25 15.8 °C 6.2 °C 1011.1 hPa WSW 11.1 km/h 16.6 km/h 53 % 0.0 mm
14:30 15.9 °C 6.3 °C 1011.1 hPa West 10.5 km/h 16.9 km/h 53 % 0.0 mm
14:35 15.9 °C 6.6 °C 1011.1 hPa WSW 9.0 km/h 16.9 km/h 54 % 0.0 mm
14:40 15.6 °C 6.1 °C 1011.1 hPa West 12.6 km/h 15.1 km/h 53 % 0.0 mm
14:41 15.5 °C 5.9 °C 1011.1 hPa West 13.7 km/h 15.1 km/h 53 % 0.0 mm
14:46 15.1 °C 5.6 °C 1011.1 hPa SW 12.2 km/h 17.2 km/h 53 % 0.0 mm
14:52 15.0 °C 5.5 °C 1011.1 hPa WSW 11.1 km/h 17.2 km/h 53 % 0.0 mm
14:57 14.9 °C 5.7 °C 1011.1 hPa WSW 5.5 km/h 16.6 km/h 54 % 0.0 mm
15:02 14.8 °C 5.8 °C 1011.1 hPa WSW 13.0 km/h 13.7 km/h 55 % 0.0 mm
15:07 14.8 °C 5.8 °C 1011.1 hPa WSW 8.7 km/h 13.0 km/h 55 % 0.0 mm
15:12 14.7 °C 6.0 °C 1011.1 hPa WSW 13.7 km/h 13.7 km/h 56 % 0.0 mm
15:17 14.6 °C 6.2 °C 1011.1 hPa SW 9.7 km/h 13.7 km/h 57 % 0.0 mm
15:22 14.6 °C 6.2 °C 1011.1 hPa SW 7.9 km/h 11.9 km/h 57 % 0.0 mm
15:27 14.5 °C 6.1 °C 1011.1 hPa SW 9.7 km/h 14.0 km/h 57 % 0.0 mm
15:32 14.6 °C 6.2 °C 1011.1 hPa WSW 9.7 km/h 14.0 km/h 57 % 0.0 mm
15:37 14.7 °C 6.3 °C 1011.1 hPa SSW 4.0 km/h 12.2 km/h 57 % 0.0 mm
15:42 15.0 °C 6.6 °C 1011.1 hPa SSW 6.4 km/h 12.2 km/h 57 % 0.0 mm
15:47 15.1 °C 6.6 °C 1011.1 hPa WSW 9.3 km/h 9.7 km/h 57 % 0.0 mm
15:52 15.1 °C 6.6 °C 1011.1 hPa SW 6.1 km/h 10.5 km/h 57 % 0.0 mm
15:57 15.1 °C 6.6 °C 1011.1 hPa Calm   10.5 km/h 57 % 0.0 mm
16:02 15.3 °C 6.8 °C 1011.1 hPa WSW 2.1 km/h 8.7 km/h 57 % 0.0 mm
16:07 15.3 °C 6.3 °C 1011.1 hPa West 11.9 km/h 16.6 km/h 55 % 0.0 mm
16:12 15.3 °C 6.1 °C 1011.1 hPa SW 6.9 km/h 16.6 km/h 54 % 0.0 mm
16:17 15.2 °C 5.9 °C 1011.1 hPa West 7.9 km/h 14.0 km/h 54 % 0.0 mm
16:22 15.0 °C 5.5 °C 1011.1 hPa WSW 13.7 km/h 19.1 km/h 53 % 0.0 mm
16:27 15.0 °C 5.8 °C 1011.1 hPa WSW 9.0 km/h 19.1 km/h 54 % 0.0 mm
16:32 15.1 °C 5.8 °C 1011.1 hPa WSW 12.2 km/h 16.3 km/h 54 % 0.0 mm
16:37 15.1 °C 6.1 °C 1011.1 hPa WSW 10.1 km/h 16.3 km/h 55 % 0.0 mm
16:42 15.1 °C 5.8 °C 1011.1 hPa West 12.2 km/h 15.8 km/h 54 % 0.0 mm
16:47 15.0 °C 6.0 °C 1011.1 hPa WSW 14.0 km/h 15.8 km/h 55 % 0.0 mm
16:52 15.0 °C 6.0 °C 1011.1 hPa West 9.3 km/h 16.3 km/h 55 % 0.0 mm
16:57 14.9 °C 6.2 °C 1011.1 hPa West 12.2 km/h 16.9 km/h 56 % 0.0 mm
17:02 14.9 °C 6.2 °C 1011.1 hPa WSW 13.7 km/h 16.9 km/h 56 % 0.0 mm
17:07 14.9 °C 6.2 °C 1012.1 hPa WSW 9.3 km/h 14.0 km/h 56 % 0.0 mm
17:12 14.9 °C 6.2 °C 1012.1 hPa WSW 9.3 km/h 13.7 km/h 56 % 0.0 mm
17:17 14.7 °C 6.3 °C 1012.1 hPa West 9.3 km/h 14.8 km/h 57 % 0.0 mm
17:22 14.6 °C 6.7 °C 1011.1 hPa West 11.6 km/h 14.8 km/h 59 % 0.0 mm
17:27 14.6 °C 6.7 °C 1011.1 hPa WSW 13.0 km/h 14.0 km/h 59 % 0.0 mm
17:32 14.5 °C 6.6 °C 1011.1 hPa West 6.4 km/h 15.1 km/h 59 % 0.0 mm
17:37 14.4 °C 6.7 °C 1011.1 hPa WSW 13.7 km/h 15.1 km/h 60 % 0.0 mm
17:42 14.4 °C 7.0 °C 1011.1 hPa West 10.5 km/h 14.3 km/h 61 % 0.0 mm
17:47 14.4 °C 7.0 °C 1011.1 hPa WSW 10.1 km/h 14.3 km/h 61 % 0.0 mm
17:52 14.5 °C 7.3 °C 1011.1 hPa West 9.3 km/h 12.2 km/h 62 % 0.0 mm
17:57 14.6 °C 7.4 °C 1011.1 hPa West 10.5 km/h 12.6 km/h 62 % 0.0 mm
18:02 14.9 °C 7.2 °C 1011.1 hPa WSW 10.5 km/h 14.0 km/h 60 % 0.0 mm
18:07 15.7 °C 7.4 °C 1011.1 hPa West 11.9 km/h 14.0 km/h 58 % 0.0 mm
18:12 16.3 °C 7.4 °C 1011.1 hPa West 10.5 km/h 13.0 km/h 56 % 0.0 mm
18:18 16.1 °C 6.8 °C 1011.1 hPa SW 9.0 km/h 13.7 km/h 54 % 0.0 mm
18:22 16.1 °C 6.8 °C 1011.1 hPa SW 7.9 km/h 13.7 km/h 54 % 0.0 mm
18:28 16.4 °C 7.1 °C 1011.1 hPa WSW 11.1 km/h 13.7 km/h 54 % 0.0 mm
18:33 16.4 °C 6.5 °C 1011.1 hPa WSW 6.1 km/h 12.6 km/h 52 % 0.0 mm
18:38 16.7 °C 6.8 °C 1011.1 hPa West 5.8 km/h 10.1 km/h 52 % 0.0 mm
18:43 16.8 °C 6.9 °C 1011.1 hPa WSW 6.9 km/h 10.1 km/h 52 % 0.0 mm
18:48 16.7 °C 6.4 °C 1011.1 hPa WSW 7.9 km/h 10.5 km/h 51 % 0.0 mm
18:53 16.4 °C 6.2 °C 1011.1 hPa WSW 7.6 km/h 14.0 km/h 51 % 0.0 mm
18:58 16.0 °C 5.6 °C 1011.1 hPa WSW 11.9 km/h 15.1 km/h 50 % 0.0 mm
19:03 15.9 °C 5.7 °C 1011.1 hPa WSW 5.5 km/h 15.1 km/h 51 % 0.0 mm
19:08 15.8 °C 5.7 °C 1010.0 hPa WSW 9.3 km/h 12.2 km/h 51 % 0.0 mm
19:13 15.6 °C 5.8 °C 1010.0 hPa WSW 9.3 km/h 12.2 km/h 52 % 0.0 mm
19:18 15.5 °C 5.9 °C 1010.0 hPa WSW 6.4 km/h 11.6 km/h 53 % 0.0 mm
19:23 15.2 °C 5.7 °C 1011.1 hPa WSW 6.1 km/h 10.1 km/h 53 % 0.0 mm
19:28 14.7 °C 5.5 °C 1011.1 hPa WSW 6.1 km/h 10.1 km/h 54 % 0.0 mm
19:33 14.6 °C 5.7 °C 1011.1 hPa WSW 6.9 km/h 8.7 km/h 55 % 0.0 mm
19:38 14.5 °C 5.6 °C 1011.1 hPa Calm   7.9 km/h 55 % 0.0 mm
19:43 14.4 °C 5.7 °C 1011.1 hPa Calm   6.4 km/h 56 % 0.0 mm
19:48 14.1 °C 5.4 °C 1011.1 hPa Calm   5.0 km/h 56 % 0.0 mm
19:53 14.0 °C 5.6 °C 1012.1 hPa Calm   5.8 km/h 57 % 0.0 mm
19:58 13.8 °C 5.7 °C 1012.1 hPa Calm   5.8 km/h 58 % 0.0 mm
20:03 13.7 °C 5.8 °C 1012.1 hPa Calm     59 % 0.0 mm
20:08 13.5 °C 5.9 °C 1012.1 hPa Calm     60 % 0.0 mm
20:13 13.4 °C 5.8 °C 1012.1 hPa WSW 2.6 km/h 9.3 km/h 60 % 0.0 mm
20:18 13.2 °C 5.9 °C 1012.1 hPa West 5.8 km/h 9.3 km/h 61 % 0.0 mm
20:23 13.1 °C 5.7 °C 1012.1 hPa Calm   7.6 km/h 61 % 0.0 mm
20:28 12.7 °C 5.6 °C 1012.1 hPa Calm   7.6 km/h 62 % 0.0 mm
20:33 12.2 °C 5.4 °C 1012.1 hPa Calm   4.7 km/h 63 % 0.0 mm
20:38 11.8 °C 5.1 °C 1012.1 hPa Calm   1.4 km/h 63 % 0.0 mm
20:43 11.4 °C 4.9 °C 1012.1 hPa Calm     64 % 0.0 mm
20:48 11.3 °C 4.9 °C 1012.1 hPa Calm     65 % 0.0 mm
20:53 11.0 °C 4.9 °C 1013.1 hPa Calm     66 % 0.0 mm
20:58 10.7 °C 4.8 °C 1013.1 hPa Calm     67 % 0.0 mm
21:03 10.4 °C 4.7 °C 1013.1 hPa Calm     68 % 0.0 mm
21:08 10.2 °C 4.8 °C 1013.1 hPa Calm     69 % 0.0 mm
21:13 10.0 °C 4.6 °C 1013.1 hPa Calm     69 % 0.0 mm
21:18 9.8 °C 4.6 °C 1013.1 hPa Calm     70 % 0.0 mm
21:23 9.5 °C 4.5 °C 1013.1 hPa Calm     71 % 0.0 mm
21:28 9.3 °C 4.3 °C 1013.1 hPa Calm     71 % 0.0 mm
21:33 9.1 °C 4.3 °C 1013.1 hPa Calm     72 % 0.0 mm
21:38 8.9 °C 4.2 °C 1013.1 hPa Calm     72 % 0.0 mm
21:43 8.8 °C 4.2 °C 1013.1 hPa Calm     73 % 0.0 mm
21:48 8.6 °C 4.2 °C 1013.1 hPa Calm     74 % 0.0 mm
21:53 8.5 °C 4.3 °C 1013.1 hPa Calm     75 % 0.0 mm
21:54 8.5 °C 4.3 °C 1013.1 hPa Calm     75 % 0.0 mm
21:59 8.5 °C 4.6 °C 1013.1 hPa Calm     76 % 0.0 mm
22:04 8.5 °C 4.6 °C 1013.1 hPa Calm     76 % 0.0 mm
22:09 8.4 °C 4.4 °C 1013.1 hPa Calm   3.2 km/h 76 % 0.0 mm
22:14 8.3 °C 4.3 °C 1013.1 hPa Calm   3.2 km/h 76 % 0.0 mm
22:19 8.3 °C 4.6 °C 1013.1 hPa Calm     77 % 0.0 mm
22:24 8.2 °C 4.4 °C 1013.1 hPa Calm     77 % 0.0 mm
22:29 8.2 °C 4.6 °C 1013.1 hPa Calm     78 % 0.0 mm
22:34 8.2 °C 4.8 °C 1013.1 hPa Calm     79 % 0.0 mm
22:39 8.2 °C 4.8 °C 1013.1 hPa Calm     79 % 0.0 mm
22:44 8.2 °C 5.0 °C 1013.1 hPa Calm     80 % 0.0 mm
22:49 8.3 °C 5.3 °C 1013.1 hPa Calm     81 % 0.0 mm
22:54 8.4 °C 5.6 °C 1013.1 hPa Calm     82 % 0.0 mm
22:59 8.6 °C 5.7 °C 1013.1 hPa Calm     82 % 0.0 mm
23:04 8.7 °C 6.0 °C 1013.1 hPa Calm     83 % 0.0 mm
23:09 8.8 °C 5.9 °C 1013.1 hPa Calm     82 % 0.0 mm
23:14 8.8 °C 5.9 °C 1013.1 hPa Calm     82 % 0.0 mm
23:19 9.0 °C 6.3 °C 1013.1 hPa Calm     83 % 0.0 mm
23:24 9.1 °C 6.4 °C 1013.1 hPa Calm   5.0 km/h 83 % 0.0 mm
23:29 9.1 °C 6.4 °C 1013.1 hPa West 1.8 km/h 5.0 km/h 83 % 0.0 mm
23:34 9.1 °C 6.4 °C 1013.1 hPa Calm   4.3 km/h 83 % 0.0 mm
23:39 9.0 °C 6.1 °C 1013.1 hPa Calm   4.3 km/h 82 % 0.0 mm
23:44 8.7 °C 5.8 °C 1013.1 hPa Calm     82 % 0.0 mm
23:49 8.5 °C 5.6 °C 1013.1 hPa Calm     82 % 0.0 mm
23:54 8.3 °C 5.3 °C 1013.1 hPa Calm     81 % 0.0 mm
23:59 8.1 °C 5.1 °C 1013.1 hPa Calm     81 % 0.0 mm
Le Gheer Warneton
Courtoisie de Weather Underground - 2.25 mb

Mise a jour : 17-12-17 08:50:15
Généré par Cumulus 1.9.4 (1099)